createdAt,value
2018-11-12T00:00:58.061Z,93.00
2018-11-12T00:03:26.294Z,92.70
2018-11-12T00:05:54.470Z,93.00
2018-11-12T00:08:22.659Z,92.80
2018-11-12T00:10:51.243Z,92.70
2018-11-12T00:13:19.410Z,92.90
2018-11-12T00:15:47.647Z,92.70
2018-11-12T00:18:15.869Z,92.60
2018-11-12T00:20:44.052Z,92.80
2018-11-12T00:23:12.215Z,92.80
2018-11-12T00:25:40.407Z,92.70
2018-11-12T00:28:08.575Z,92.80
2018-11-12T00:30:36.739Z,92.60
2018-11-12T00:33:05.068Z,92.70
2018-11-12T00:35:33.269Z,92.50
2018-11-12T00:38:01.464Z,92.60
2018-11-12T00:40:29.623Z,92.60
2018-11-12T00:42:57.824Z,92.80
2018-11-12T00:45:26.020Z,92.40
2018-11-12T00:47:54.186Z,92.50
2018-11-12T00:50:22.359Z,92.60
2018-11-12T00:52:50.556Z,92.50
2018-11-12T00:55:18.775Z,92.60
2018-11-12T00:57:46.999Z,92.40
2018-11-12T01:00:16.527Z,92.40
2018-11-12T01:02:46.827Z,92.30
2018-11-12T01:05:15.632Z,92.70
2018-11-12T01:07:43.815Z,92.50
2018-11-12T01:10:13.192Z,92.30
2018-11-12T01:12:42.033Z,92.30
2018-11-12T01:15:12.623Z,92.40
2018-11-12T01:17:41.126Z,92.20
2018-11-12T01:20:10.506Z,92.30
2018-11-12T01:22:38.663Z,92.30
2018-11-12T01:25:07.775Z,92.40
2018-11-12T01:27:35.939Z,92.20
2018-11-12T01:30:05.853Z,92.20
2018-11-12T01:32:34.057Z,92.30
2018-11-12T01:35:02.244Z,92.50
2018-11-12T01:37:30.415Z,92.20
2018-11-12T01:39:58.583Z,92.10
2018-11-12T01:42:26.763Z,92.40
2018-11-12T01:44:54.939Z,92.60
2018-11-12T01:47:23.088Z,92.60
2018-11-12T01:49:51.261Z,92.40
2018-11-12T01:52:19.472Z,92.20
2018-11-12T01:54:47.641Z,92.50
2018-11-12T01:57:15.828Z,92.30
2018-11-12T01:59:44.036Z,92.30
2018-11-12T02:02:12.224Z,92.30
2018-11-12T02:04:40.482Z,92.40
2018-11-12T02:07:08.676Z,92.30
2018-11-12T02:09:36.905Z,92.30
2018-11-12T02:12:05.273Z,92.60
2018-11-12T02:14:33.526Z,92.50
2018-11-12T02:17:01.661Z,92.20
2018-11-12T02:19:29.844Z,92.00
2018-11-12T02:21:58.088Z,92.00
2018-11-12T02:24:26.254Z,92.10
2018-11-12T02:26:54.431Z,92.50
2018-11-12T02:29:22.639Z,92.50
2018-11-12T02:31:50.819Z,92.30
2018-11-12T02:34:18.994Z,92.20
2018-11-12T02:36:47.223Z,92.20
2018-11-12T02:39:15.445Z,92.20
2018-11-12T02:41:43.623Z,92.30
2018-11-12T02:44:11.911Z,92.50
2018-11-12T02:46:40.087Z,92.20
2018-11-12T02:49:08.318Z,92.20
2018-11-12T02:51:36.539Z,92.30
2018-11-12T02:54:05.176Z,92.80
2018-11-12T02:56:34.078Z,92.20
2018-11-12T02:59:02.295Z,92.10
2018-11-12T03:01:30.482Z,92.00
2018-11-12T03:03:58.663Z,92.10
2018-11-12T03:06:26.844Z,92.20
2018-11-12T03:08:55.052Z,92.20
2018-11-12T03:11:23.243Z,92.20
2018-11-12T03:13:51.414Z,92.20
2018-11-12T03:16:19.632Z,92.60
2018-11-12T03:18:47.802Z,92.60
2018-11-12T03:21:15.995Z,92.50
2018-11-12T03:23:44.499Z,92.30
2018-11-12T03:26:12.702Z,92.30
2018-11-12T03:28:40.925Z,92.20
2018-11-12T03:31:09.136Z,92.30
2018-11-12T03:33:37.332Z,92.30
2018-11-12T03:36:05.734Z,92.20
2018-11-12T03:38:33.910Z,92.30
2018-11-12T03:41:02.111Z,92.20
2018-11-12T03:43:30.283Z,92.10
2018-11-12T03:45:58.466Z,92.00
2018-11-12T03:48:26.638Z,92.00
2018-11-12T03:50:54.827Z,92.10
2018-11-12T03:53:23.003Z,92.10
2018-11-12T03:55:51.220Z,92.00
2018-11-12T03:58:19.404Z,91.90
2018-11-12T04:00:47.595Z,92.00
2018-11-12T04:03:15.833Z,92.20
2018-11-12T04:05:44.110Z,92.10
2018-11-12T04:08:12.308Z,91.90
2018-11-12T04:10:40.520Z,92.00
2018-11-12T04:13:08.686Z,91.90
2018-11-12T04:15:36.863Z,92.20
2018-11-12T04:18:05.442Z,91.80
2018-11-12T04:20:33.607Z,91.90
2018-11-12T04:23:03.495Z,92.00
2018-11-12T04:25:32.583Z,92.10
2018-11-12T04:28:00.831Z,92.40
2018-11-12T04:30:29.022Z,92.10
2018-11-12T04:32:57.228Z,91.90
2018-11-12T04:35:25.386Z,92.00
2018-11-12T04:37:53.563Z,92.00
2018-11-12T04:40:21.776Z,92.10
2018-11-12T04:42:50.331Z,92.20
2018-11-12T04:45:19.627Z,92.30
2018-11-12T04:47:48.599Z,92.20
2018-11-12T04:50:18.643Z,92.20
2018-11-12T04:52:46.993Z,92.10
2018-11-12T04:55:16.452Z,92.20
2018-11-12T04:57:44.979Z,92.00
2018-11-12T05:00:18.264Z,92.10
2018-11-12T05:02:46.435Z,92.10
2018-11-12T05:05:16.971Z,92.10
2018-11-12T05:07:45.454Z,92.20
2018-11-12T05:10:15.059Z,92.50
2018-11-12T05:12:43.851Z,92.20
2018-11-12T05:15:14.004Z,92.30
2018-11-12T05:17:42.229Z,92.00
2018-11-12T05:20:13.035Z,92.30
2018-11-12T05:22:41.451Z,92.10
2018-11-12T05:25:10.063Z,92.30
2018-11-12T05:27:38.255Z,92.40
2018-11-12T05:30:11.730Z,92.30
2018-11-12T05:32:39.899Z,92.10
2018-11-12T05:35:08.202Z,92.10
2018-11-12T05:37:36.586Z,92.10
2018-11-12T05:40:06.623Z,92.20
2018-11-12T05:42:34.795Z,92.10
2018-11-12T05:45:03.179Z,92.30
2018-11-12T05:47:31.265Z,92.10
2018-11-12T05:49:59.484Z,92.30
2018-11-12T05:52:27.680Z,92.40
2018-11-12T05:54:55.860Z,92.40
2018-11-12T05:57:24.026Z,92.60
2018-11-12T05:59:52.224Z,92.50
2018-11-12T06:02:20.379Z,92.30
2018-11-12T06:04:48.608Z,92.20
2018-11-12T06:07:16.702Z,92.30
2018-11-12T06:09:45.243Z,92.40
2018-11-12T06:12:13.419Z,92.30
2018-11-12T06:14:41.591Z,92.40
2018-11-12T06:17:09.780Z,92.50
2018-11-12T06:19:37.947Z,92.40
2018-11-12T06:22:06.111Z,92.50
2018-11-12T06:24:34.320Z,92.50
2018-11-12T06:27:02.552Z,92.70
2018-11-12T06:29:30.739Z,92.60
2018-11-12T06:31:58.935Z,92.40
2018-11-12T06:34:27.533Z,92.60
2018-11-12T06:36:56.088Z,92.50
2018-11-12T06:39:24.106Z,92.30
2018-11-12T06:41:52.271Z,92.60
2018-11-12T06:44:20.442Z,92.50
2018-11-12T06:46:48.635Z,92.40
2018-11-12T06:49:16.836Z,92.50
2018-11-12T06:51:45.069Z,92.70
2018-11-12T06:54:13.231Z,92.80
2018-11-12T06:56:41.449Z,92.90
2018-11-12T06:59:09.615Z,92.80
2018-11-12T07:01:37.775Z,92.70
2018-11-12T07:04:06.033Z,92.70
2018-11-12T07:06:34.277Z,92.80
2018-11-12T07:09:02.420Z,92.90
2018-11-12T07:11:30.819Z,93.00
2018-11-12T07:13:59.036Z,93.10
2018-11-12T07:16:27.215Z,93.10
2018-11-12T07:18:55.457Z,93.30
2018-11-12T07:21:23.566Z,93.30
2018-11-12T07:23:51.752Z,93.40
2018-11-12T07:26:19.931Z,93.40
2018-11-12T07:28:48.111Z,93.30
2018-11-12T07:31:16.322Z,93.40
2018-11-12T07:33:44.508Z,93.50
2018-11-12T07:36:12.683Z,93.40
2018-11-12T07:38:40.916Z,93.40
2018-11-12T07:41:09.174Z,93.40
2018-11-12T07:43:37.409Z,93.40
2018-11-12T07:46:05.614Z,93.40
2018-11-12T07:48:33.835Z,93.40
2018-11-12T07:51:02.018Z,93.30
2018-11-12T07:53:30.196Z,93.20
2018-11-12T07:55:58.416Z,93.00
2018-11-12T07:58:26.582Z,93.10
2018-11-12T08:00:54.770Z,92.80
2018-11-12T08:03:22.960Z,92.50
2018-11-12T08:05:51.160Z,92.80
2018-11-12T08:08:19.326Z,92.60
2018-11-12T08:10:47.510Z,92.60
2018-11-12T08:13:15.706Z,92.50
2018-11-12T08:15:43.871Z,92.10
2018-11-12T08:18:12.072Z,92.10
2018-11-12T08:20:40.286Z,91.00
2018-11-12T08:23:08.458Z,91.00
2018-11-12T08:25:36.623Z,90.60
2018-11-12T08:28:04.923Z,90.50
2018-11-12T08:30:33.117Z,90.60
2018-11-12T08:33:01.587Z,90.50
2018-11-12T08:35:29.719Z,90.70
2018-11-12T08:37:58.254Z,90.40
2018-11-12T08:40:27.619Z,90.20
2018-11-12T08:42:55.762Z,90.00
2018-11-12T08:45:23.960Z,90.10
2018-11-12T08:47:53.198Z,89.60
2018-11-12T08:50:22.540Z,89.80
2018-11-12T08:52:51.488Z,88.90
2018-11-12T08:55:22.118Z,89.10
2018-11-12T08:57:51.545Z,88.10
2018-11-12T09:00:20.742Z,87.30
2018-11-12T09:02:48.924Z,89.20
2018-11-12T09:05:18.094Z,89.20
2018-11-12T09:07:47.795Z,89.80
2018-11-12T09:10:18.734Z,90.10
2018-11-12T09:12:47.113Z,89.70
2018-11-12T09:15:15.519Z,89.40
2018-11-12T09:17:44.687Z,89.30
2018-11-12T09:20:15.461Z,89.30
2018-11-12T09:22:43.932Z,88.70
2018-11-12T09:25:14.015Z,88.30
2018-11-12T09:27:42.711Z,88.40
2018-11-12T09:30:14.574Z,88.00
2018-11-12T09:32:43.204Z,87.90
2018-11-12T09:35:20.131Z,87.60
2018-11-12T09:37:49.336Z,87.00
2018-11-12T09:40:22.937Z,86.20
2018-11-12T09:42:51.150Z,85.50
2018-11-12T09:45:19.314Z,85.20
2018-11-12T09:47:47.724Z,84.10
2018-11-12T09:50:16.947Z,83.00
2018-11-12T09:52:46.559Z,82.50
2018-11-12T09:55:15.443Z,80.70
2018-11-12T09:57:44.946Z,80.70
2018-11-12T10:00:14.853Z,81.60
2018-11-12T10:02:45.384Z,81.60
2018-11-12T10:05:13.832Z,80.60
2018-11-12T10:07:42.449Z,80.80
2018-11-12T10:10:23.448Z,80.20
2018-11-12T10:12:51.011Z,80.70
2018-11-12T10:15:19.928Z,79.30
2018-11-12T10:17:48.907Z,79.30
2018-11-12T10:20:13.610Z,78.90
2018-11-12T10:22:41.938Z,78.10
2018-11-12T10:25:10.164Z,77.50
2018-11-12T10:27:38.487Z,76.50
2018-11-12T10:30:07.578Z,75.60
2018-11-12T10:32:35.780Z,75.70
2018-11-12T10:35:03.943Z,75.20
2018-11-12T10:37:32.135Z,76.00
2018-11-12T10:40:00.337Z,74.20
2018-11-12T10:42:28.524Z,73.50
2018-11-12T10:44:56.740Z,73.40
2018-11-12T10:47:24.940Z,72.30
2018-11-12T10:49:53.779Z,72.20
2018-11-12T10:52:21.955Z,71.60
2018-11-12T10:54:50.229Z,70.80
2018-11-12T10:57:18.286Z,70.40
2018-11-12T10:59:46.503Z,69.00
2018-11-12T11:02:20.130Z,69.80
2018-11-12T11:04:48.291Z,70.00
2018-11-12T11:07:16.493Z,69.50
2018-11-12T11:09:44.650Z,68.10
2018-11-12T11:12:12.872Z,68.10
2018-11-12T11:14:41.315Z,67.90
2018-11-12T11:17:09.748Z,67.80
2018-11-12T11:19:37.990Z,66.90
2018-11-12T11:22:06.212Z,65.50
2018-11-12T11:24:34.382Z,65.80
2018-11-12T11:27:02.719Z,65.80
2018-11-12T11:29:30.935Z,65.70
2018-11-12T11:31:59.145Z,65.30
2018-11-12T11:34:27.328Z,63.50
2018-11-12T11:36:55.499Z,65.40
2018-11-12T11:39:23.679Z,65.20
2018-11-12T11:41:51.850Z,65.30
2018-11-12T11:44:20.050Z,65.00
2018-11-12T11:46:48.219Z,65.50
2018-11-12T11:49:16.406Z,64.30
2018-11-12T11:51:44.638Z,65.00
2018-11-12T11:54:12.815Z,64.80
2018-11-12T11:56:41.189Z,64.90
2018-11-12T11:59:09.328Z,63.60
2018-11-12T12:01:37.559Z,64.60
2018-11-12T12:04:05.699Z,63.40
2018-11-12T12:06:33.912Z,63.90
2018-11-12T12:09:02.187Z,62.10
2018-11-12T12:11:30.270Z,61.60
2018-11-12T12:13:58.683Z,60.40
2018-11-12T12:16:26.896Z,60.20
2018-11-12T12:18:55.081Z,59.80
2018-11-12T12:21:23.255Z,58.90
2018-11-12T12:23:51.591Z,59.40
2018-11-12T12:26:19.767Z,59.90
2018-11-12T12:28:47.951Z,59.40
2018-11-12T12:31:16.164Z,59.00
2018-11-12T12:33:44.431Z,58.80
2018-11-12T12:36:13.263Z,58.70
2018-11-12T12:38:41.392Z,58.20
2018-11-12T12:41:09.807Z,57.40
2018-11-12T12:43:38.026Z,57.20
2018-11-12T12:46:06.545Z,57.00
2018-11-12T12:48:34.723Z,57.00
2018-11-12T12:51:02.940Z,56.70
2018-11-12T12:53:31.135Z,56.30
2018-11-12T12:55:59.376Z,57.80
2018-11-12T12:58:27.583Z,57.30
2018-11-12T13:00:55.663Z,57.80
2018-11-12T13:03:23.835Z,58.10
2018-11-12T13:05:52.014Z,59.20
2018-11-12T13:08:20.225Z,61.40
2018-11-12T13:10:48.458Z,62.20
2018-11-12T13:13:16.688Z,62.20
2018-11-12T13:15:44.886Z,62.30
2018-11-12T13:18:13.058Z,61.80
2018-11-12T13:20:41.299Z,62.00
2018-11-12T13:23:09.414Z,62.40
2018-11-12T13:25:37.590Z,62.00
2018-11-12T13:28:05.887Z,62.30
2018-11-12T13:30:34.067Z,62.10
2018-11-12T13:33:02.296Z,62.90
2018-11-12T13:35:30.504Z,64.60
2018-11-12T13:37:58.695Z,65.50
2018-11-12T13:40:27.426Z,64.10
2018-11-12T13:42:57.127Z,65.50
2018-11-12T13:45:25.719Z,67.10
2018-11-12T13:47:54.105Z,68.30
2018-11-12T13:50:23.516Z,68.10
2018-11-12T13:52:52.431Z,68.10
2018-11-12T13:55:21.684Z,68.50
2018-11-12T13:57:49.863Z,67.50
2018-11-12T14:00:25.855Z,67.50
2018-11-12T14:02:54.469Z,66.60
2018-11-12T14:05:23.591Z,65.90
2018-11-12T14:07:51.818Z,66.30
2018-11-12T14:10:23.423Z,66.00
2018-11-12T14:12:52.606Z,66.60
2018-11-12T14:15:21.844Z,68.60
2018-11-12T14:17:50.455Z,69.50
2018-11-12T14:20:19.029Z,70.80
2018-11-12T14:22:47.251Z,71.80
2018-11-12T14:25:16.564Z,72.50
2018-11-12T14:27:45.832Z,72.80
2018-11-12T14:30:15.291Z,73.80
2018-11-12T14:32:43.623Z,73.90
2018-11-12T14:35:12.758Z,73.40
2018-11-12T14:37:41.744Z,73.40
2018-11-12T14:40:10.779Z,74.10
2018-11-12T14:42:39.112Z,74.70
2018-11-12T14:45:08.612Z,75.00
2018-11-12T14:47:36.755Z,75.30
2018-11-12T14:50:05.121Z,76.70
2018-11-12T14:52:33.411Z,77.20
2018-11-12T14:55:01.609Z,77.60
2018-11-12T14:57:30.067Z,78.30
2018-11-12T14:59:58.469Z,78.00
2018-11-12T15:02:27.050Z,78.50
2018-11-12T15:04:55.308Z,78.60
2018-11-12T15:07:23.790Z,79.30
2018-11-12T15:09:51.955Z,79.80
2018-11-12T15:12:20.235Z,79.80
2018-11-12T15:14:48.594Z,80.50
2018-11-12T15:17:16.608Z,80.50
2018-11-12T15:19:44.774Z,80.90
2018-11-12T15:22:12.980Z,80.60
2018-11-12T15:24:41.164Z,81.60
2018-11-12T15:27:09.416Z,81.40
2018-11-12T15:29:37.756Z,81.40
2018-11-12T15:32:06.235Z,81.80
2018-11-12T15:34:34.434Z,82.80
2018-11-12T15:37:02.824Z,83.00
2018-11-12T15:39:30.919Z,82.40
2018-11-12T15:41:59.109Z,82.70
2018-11-12T15:44:27.312Z,83.60
2018-11-12T15:46:55.503Z,83.60
2018-11-12T15:49:23.679Z,84.40
2018-11-12T15:51:51.852Z,84.50
2018-11-12T15:54:20.021Z,84.50
2018-11-12T15:56:49.072Z,84.70
2018-11-12T15:59:17.286Z,84.70
2018-11-12T16:01:45.707Z,85.80
2018-11-12T16:04:14.136Z,85.20
2018-11-12T16:06:42.351Z,85.20
2018-11-12T16:09:13.427Z,85.70
2018-11-12T16:11:42.093Z,86.20
2018-11-12T16:14:10.266Z,86.30
2018-11-12T16:16:38.533Z,86.40
2018-11-12T16:19:07.296Z,86.10
2018-11-12T16:21:35.660Z,86.80
2018-11-12T16:24:04.094Z,86.80
2018-11-12T16:26:32.359Z,86.70
2018-11-12T16:29:00.531Z,87.10
2018-11-12T16:31:28.830Z,87.60
2018-11-12T16:33:57.061Z,87.00
2018-11-12T16:36:25.323Z,87.30
2018-11-12T16:38:53.542Z,87.60
2018-11-12T16:41:21.719Z,87.70
2018-11-12T16:43:50.451Z,87.30
2018-11-12T16:46:18.641Z,88.10
2018-11-12T16:48:46.864Z,88.60
2018-11-12T16:51:15.113Z,88.60
2018-11-12T16:53:43.348Z,89.00
2018-11-12T16:56:11.560Z,89.00
2018-11-12T16:58:39.886Z,88.90
2018-11-12T17:01:08.122Z,88.80
2018-11-12T17:03:36.255Z,88.60
2018-11-12T17:06:04.464Z,89.00
2018-11-12T17:08:32.643Z,88.90
2018-11-12T17:11:00.835Z,88.70
2018-11-12T17:13:29.103Z,89.20
2018-11-12T17:15:57.287Z,89.40
2018-11-12T17:18:25.467Z,89.90
2018-11-12T17:20:53.651Z,89.20
2018-11-12T17:23:21.869Z,90.10
2018-11-12T17:25:50.043Z,89.80
2018-11-12T17:28:18.226Z,90.10
2018-11-12T17:30:46.517Z,90.00
2018-11-12T17:33:14.668Z,89.90
2018-11-12T17:35:42.898Z,89.80
2018-11-12T17:38:11.164Z,90.00
2018-11-12T17:40:39.403Z,90.00
2018-11-12T17:43:07.693Z,90.20
2018-11-12T17:45:35.836Z,90.40
2018-11-12T17:48:04.039Z,90.40
2018-11-12T17:50:32.252Z,90.60
2018-11-12T17:53:00.443Z,90.30
2018-11-12T17:55:28.627Z,90.50
2018-11-12T17:57:56.819Z,90.80
2018-11-12T18:00:26.430Z,90.70
2018-11-12T18:02:54.614Z,90.40
2018-11-12T18:05:22.819Z,90.30
2018-11-12T18:07:51.617Z,90.40
2018-11-12T18:10:19.771Z,90.30
2018-11-12T18:12:47.970Z,90.70
2018-11-12T18:15:18.357Z,90.60
2018-11-12T18:17:46.640Z,90.30
2018-11-12T18:20:16.989Z,90.60
2018-11-12T18:22:45.311Z,90.50
2018-11-12T18:25:13.987Z,90.40
2018-11-12T18:27:42.184Z,90.00
2018-11-12T18:30:16.698Z,90.60
2018-11-12T18:32:45.571Z,90.60
2018-11-12T18:35:13.947Z,90.40
2018-11-12T18:37:42.158Z,90.90
2018-11-12T18:40:12.043Z,90.60
2018-11-12T18:42:40.415Z,90.70
2018-11-12T18:45:11.858Z,90.90
2018-11-12T18:47:40.347Z,90.80
2018-11-12T18:50:11.791Z,90.80
2018-11-12T18:52:40.020Z,90.70
2018-11-12T18:55:08.847Z,91.50
2018-11-12T18:57:37.538Z,91.60
2018-11-12T19:00:07.454Z,91.00
2018-11-12T19:02:35.714Z,91.20
2018-11-12T19:05:04.121Z,91.30
2018-11-12T19:07:32.312Z,91.50
2018-11-12T19:10:00.532Z,91.50
2018-11-12T19:12:28.748Z,91.50
2018-11-12T19:14:56.911Z,91.40
2018-11-12T19:17:25.112Z,91.30
2018-11-12T19:19:53.397Z,91.30
2018-11-12T19:22:21.575Z,91.50
2018-11-12T19:24:49.744Z,91.60
2018-11-12T19:27:17.967Z,91.90
2018-11-12T19:29:46.103Z,91.90
2018-11-12T19:32:14.282Z,91.60
2018-11-12T19:34:42.442Z,91.40
2018-11-12T19:37:10.766Z,91.60
2018-11-12T19:39:38.935Z,91.60
2018-11-12T19:42:07.141Z,91.70
2018-11-12T19:44:35.294Z,91.50
2018-11-12T19:47:03.467Z,91.50
2018-11-12T19:49:31.664Z,91.70
2018-11-12T19:51:59.938Z,91.70
2018-11-12T19:54:28.116Z,91.70
2018-11-12T19:56:56.312Z,91.30
2018-11-12T19:59:24.478Z,91.50
2018-11-12T20:01:52.651Z,91.50
2018-11-12T20:04:20.841Z,91.40
2018-11-12T20:06:49.011Z,91.30
2018-11-12T20:09:17.230Z,91.50
2018-11-12T20:11:45.420Z,91.60
2018-11-12T20:14:13.968Z,91.90
2018-11-12T20:16:42.143Z,91.70
2018-11-12T20:19:10.333Z,91.80
2018-11-12T20:21:38.541Z,91.60
2018-11-12T20:24:09.074Z,91.60
2018-11-12T20:26:37.363Z,91.60
2018-11-12T20:29:05.575Z,91.80
2018-11-12T20:31:34.103Z,91.80
2018-11-12T20:34:02.592Z,91.80
2018-11-12T20:36:31.570Z,91.70
2018-11-12T20:38:59.824Z,91.50
2018-11-12T20:41:28.029Z,91.70
2018-11-12T20:43:56.216Z,91.40
2018-11-12T20:46:24.484Z,91.50
2018-11-12T20:48:52.707Z,91.60
2018-11-12T20:51:20.893Z,91.70
2018-11-12T20:53:49.072Z,91.60
2018-11-12T20:56:17.270Z,91.60
2018-11-12T20:58:46.040Z,91.90
2018-11-12T21:01:14.232Z,91.80
2018-11-12T21:03:42.414Z,91.70
2018-11-12T21:06:10.630Z,91.70
2018-11-12T21:08:38.837Z,91.80
2018-11-12T21:11:07.066Z,91.50
2018-11-12T21:13:35.281Z,91.50
2018-11-12T21:16:03.460Z,91.80
2018-11-12T21:18:31.642Z,91.70
2018-11-12T21:20:59.802Z,91.60
2018-11-12T21:23:28.034Z,91.70
2018-11-12T21:25:56.150Z,91.60
2018-11-12T21:28:24.323Z,91.70
2018-11-12T21:30:52.487Z,91.60
2018-11-12T21:33:20.667Z,91.60
2018-11-12T21:35:48.830Z,91.80
2018-11-12T21:38:17.003Z,91.80
2018-11-12T21:40:45.162Z,91.70
2018-11-12T21:43:13.455Z,91.50
2018-11-12T21:45:41.510Z,91.60
2018-11-12T21:48:09.711Z,91.50
2018-11-12T21:50:37.914Z,91.50
2018-11-12T21:53:06.291Z,91.90
2018-11-12T21:55:34.474Z,91.40
2018-11-12T21:58:02.655Z,91.50
2018-11-12T22:00:30.836Z,91.60
2018-11-12T22:03:04.685Z,91.70
2018-11-12T22:05:33.514Z,91.80
2018-11-12T22:08:02.423Z,91.80
2018-11-12T22:10:30.583Z,91.70
2018-11-12T22:12:58.804Z,91.70
2018-11-12T22:15:27.023Z,91.50
2018-11-12T22:17:55.194Z,91.40
2018-11-12T22:20:24.912Z,91.70
2018-11-12T22:22:53.091Z,91.80
2018-11-12T22:25:22.079Z,91.50
2018-11-12T22:27:51.062Z,91.40
2018-11-12T22:30:21.412Z,91.50
2018-11-12T22:32:51.624Z,91.80
2018-11-12T22:35:20.391Z,91.50
2018-11-12T22:37:48.816Z,91.50
2018-11-12T22:40:17.671Z,91.60
2018-11-12T22:42:46.750Z,91.60
2018-11-12T22:45:16.367Z,91.80
2018-11-12T22:47:45.454Z,91.90
2018-11-12T22:50:13.712Z,91.50
2018-11-12T22:52:42.548Z,91.70
2018-11-12T22:55:12.230Z,91.60
2018-11-12T22:57:40.632Z,91.90
2018-11-12T23:00:16.827Z,91.80
2018-11-12T23:02:45.443Z,91.80
2018-11-12T23:05:14.040Z,91.60
2018-11-12T23:07:42.655Z,92.00
2018-11-12T23:10:10.838Z,91.70
2018-11-12T23:12:39.091Z,91.60
2018-11-12T23:15:07.751Z,91.60
2018-11-12T23:17:36.606Z,91.60
2018-11-12T23:20:06.769Z,91.70
2018-11-12T23:22:35.537Z,91.60
2018-11-12T23:25:04.675Z,91.50
2018-11-12T23:27:32.842Z,91.60
2018-11-12T23:30:01.020Z,91.80
2018-11-12T23:32:29.504Z,91.90
2018-11-12T23:34:57.674Z,91.60
2018-11-12T23:37:26.040Z,91.70
2018-11-12T23:39:54.210Z,91.70
2018-11-12T23:42:22.371Z,91.70
2018-11-12T23:44:50.563Z,91.70
2018-11-12T23:47:18.751Z,91.80
2018-11-12T23:49:46.972Z,91.80
2018-11-12T23:52:15.156Z,91.60
2018-11-12T23:54:43.372Z,91.80
2018-11-12T23:57:11.560Z,91.70
2018-11-12T23:59:40.113Z,91.70
